Ever Unicorn — 9V7963 — position and weather

sailwx.info

Track history (hours):
 
Tides and Currents Weather Stations Pressure Air Temp Water Temp Dewpoint Dewpoint Depression Visibility Wind Speed Wind Dir Waves Ship Positions

Ever Unicorn

Last reported at 2015-Mar-05 09:00 UTC. Time now 2015-Mar-05 16:05 UTC.
Position N 43°30' E 147°54'.

Length 285 m; draft 12.1 m.

Type: Ship (hazmat cat D). MMSI: 564995000.

Wind from 270 at 29 knots

Barometer 1009.0 mb
Visibility: greater than 5.4 NM

Date/timePositionNaut miles runAvg speedWind from/ knotsBaromVisibWave heightAir tempDewpointWater temp
2015-Mar-05 09:00N 43°30' E 147°54'   270 / 291009.0 5.4
2015-Feb-28 15:33N 29°55' E 122°53'1515.2
2015-Feb-28 14:33N 29°44' E 122°41'1414.3
2015-Feb-28 13:33N 29°42' E 122°25'1313.0
2015-Feb-28 12:34N 29°50' E 122°13'9 9.4
2015-Feb-28 11:34N 29°54' E 122°03'0 0.4
2015-Feb-28 10:32N 29°53' E 122°03'0 0.0
2015-Feb-28 09:33N 29°53' E 122°03'0 0.0
2015-Feb-28 08:33N 29°53' E 122°03'0 0.0
2015-Feb-28 07:33N 29°53' E 122°03'0 0.0
2015-Feb-28 06:34N 29°53' E 122°03'0 0.0
2015-Feb-28 05:33N 29°53' E 122°03'0 0.0
2015-Feb-28 04:31N 29°53' E 122°03'0 0.0
2015-Feb-28 03:33N 29°53' E 122°03'0 0.0
2015-Feb-28 02:33N 29°53' E 122°03'0 0.0
2015-Feb-28 01:33N 29°53' E 122°03'0 0.0
2015-Feb-28 00:34N 29°53' E 122°03'7 7.3
2015-Feb-27 23:33N 29°53' E 122°11'1111.1
2015-Feb-27 22:33N 29°45' E 122°20'10 9.8
2015-Feb-27 21:33N 29°44' E 122°31'1212.4
2015-Feb-27 20:33N 29°53' E 122°42'1514.4
2015-Feb-27 19:32N 30°02' E 122°55'6613.3
2015-Feb-27 14:33N 31°06' E 122°34'1414.1
2015-Feb-27 13:34N 31°07' E 122°18'1111.1
2015-Feb-27 12:34N 31°13' E 122°07'1313.4
2015-Feb-27 11:33N 31°16' E 121°52'1111.5
2015-Feb-27 10:34N 31°21' E 121°40'5 4.6
2015-Feb-27 09:33N 31°23' E 121°35'0 0.0
2015-Feb-27 08:33N 31°23' E 121°35'0 0.0
2015-Feb-27 07:33N 31°23' E 121°35'0 0.0
2015-Feb-27 06:33N 31°23' E 121°35'0 0.0
2015-Feb-27 05:33N 31°23' E 121°35'0 0.0
2015-Feb-27 04:33N 31°23' E 121°35'0 0.0
2015-Feb-27 03:33N 31°23' E 121°35'0 0.0
2015-Feb-27 02:33N 31°23' E 121°35'0 0.0
2015-Feb-27 01:33N 31°23' E 121°35'0 0.0
2015-Feb-27 00:33N 31°23' E 121°35'0 0.0
2015-Feb-26 23:33N 31°23' E 121°35'0 0.0
2015-Feb-26 22:33N 31°23' E 121°35'1 0.7
2015-Feb-26 21:34N 31°23' E 121°34'10 9.7
2015-Feb-26 20:33N 31°19' E 121°44'1111.2
2015-Feb-26 19:33N 31°15' E 121°57'1110.9
2015-Feb-26 18:33N 31°12' E 122°09'1110.8
2015-Feb-26 17:33N 31°06' E 122°20'1010.1
2015-Feb-26 16:33N 31°07' E 122°31'4212.4
2015-Feb-26 13:11N 30°48' E 123°14'1213.1
2015-Feb-26 12:17N 30°36' E 123°18'2914.7
2015-Feb-26 10:19N 30°07' E 123°18'47114.4
2015-Feb-25 01:33N 22°50' E 120°01'1414.2
2015-Feb-25 00:33N 22°38' E 120°08'1110.8
2015-Feb-24 23:33N 22°33' E 120°19'1 0.5
2015-Feb-24 22:32N 22°33' E 120°19'0 0.0
2015-Feb-24 21:32N 22°33' E 120°19'0 0.0
2015-Feb-24 20:26N 22°33' E 120°19'0 0.0
2015-Feb-24 19:32N 22°33' E 120°19'0 0.0
2015-Feb-24 18:32N 22°33' E 120°19'0 0.0
2015-Feb-24 17:32N 22°33' E 120°19'0 0.0
2015-Feb-24 16:26N 22°33' E 120°19'0 0.0
2015-Feb-24 15:32N 22°33' E 120°19'0 0.0
2015-Feb-24 14:26N 22°33' E 120°19'0 0.0
2015-Feb-24 13:32N 22°33' E 120°19'0 0.0
2015-Feb-24 12:32N 22°33' E 120°19'0 0.0
2015-Feb-24 11:32N 22°33' E 120°19'0 0.0
2015-Feb-24 10:32N 22°33' E 120°19'0 0.0
2015-Feb-24 09:33N 22°33' E 120°19'0 0.0
2015-Feb-24 08:33N 22°33' E 120°19'0 0.0
2015-Feb-24 07:33N 22°33' E 120°19'0 0.0
2015-Feb-24 06:33N 22°33' E 120°19'0 0.0
2015-Feb-24 05:33N 22°33' E 120°19'0 0.0
2015-Feb-24 04:33N 22°33' E 120°19'0 0.0
2015-Feb-24 03:33N 22°33' E 120°19'0 0.0
2015-Feb-24 02:33N 22°33' E 120°19'0 0.0
2015-Feb-24 01:33N 22°33' E 120°19'5 4.8
2015-Feb-24 00:34N 22°32' E 120°14'6 5.8
2015-Feb-23 23:33N 22°30' E 120°08'10 9.6
2015-Feb-23 22:33N 22°30' E 119°58'1414.4
2015-Feb-23 21:33N 22°29' E 119°42'1414.5
2015-Feb-23 20:33N 22°27' E 119°27'  
Track history (hours):
 
Tides and Currents Weather Stations Pressure Air Temp Water Temp Dewpoint Dewpoint Depression Visibility Wind Speed Wind Dir Waves Ship Positions

Ever Unicorn

Last reported at 2015-Mar-05 09:00 UTC. Time now 2015-Mar-05 16:05 UTC.
Position N 43°30' E 147°54'.

Length 285 m; draft 12.1 m.

Type: Ship (hazmat cat D). MMSI: 564995000.

Wind from 270 at 29 knots

Barometer 1009.0 mb
Visibility: greater than 5.4 NM

Date/timePositionNaut miles runAvg speedWind from/ knotsBaromVisibWave heightAir tempDewpointWater temp
2015-Mar-05 09:00N 43°30' E 147°54'   270 / 291009.0 5.4
2015-Feb-28 15:33N 29°55' E 122°53'1515.2
2015-Feb-28 14:33N 29°44' E 122°41'1414.3
2015-Feb-28 13:33N 29°42' E 122°25'1313.0
2015-Feb-28 12:34N 29°50' E 122°13'9 9.4
2015-Feb-28 11:34N 29°54' E 122°03'0 0.4
2015-Feb-28 10:32N 29°53' E 122°03'0 0.0
2015-Feb-28 09:33N 29°53' E 122°03'0 0.0
2015-Feb-28 08:33N 29°53' E 122°03'0 0.0
2015-Feb-28 07:33N 29°53' E 122°03'0 0.0
2015-Feb-28 06:34N 29°53' E 122°03'0 0.0
2015-Feb-28 05:33N 29°53' E 122°03'0 0.0
2015-Feb-28 04:31N 29°53' E 122°03'0 0.0
2015-Feb-28 03:33N 29°53' E 122°03'0 0.0
2015-Feb-28 02:33N 29°53' E 122°03'0 0.0
2015-Feb-28 01:33N 29°53' E 122°03'0 0.0
2015-Feb-28 00:34N 29°53' E 122°03'7 7.3
2015-Feb-27 23:33N 29°53' E 122°11'1111.1
2015-Feb-27 22:33N 29°45' E 122°20'10 9.8
2015-Feb-27 21:33N 29°44' E 122°31'1212.4
2015-Feb-27 20:33N 29°53' E 122°42'1514.4
2015-Feb-27 19:32N 30°02' E 122°55'6613.3
2015-Feb-27 14:33N 31°06' E 122°34'1414.1
2015-Feb-27 13:34N 31°07' E 122°18'1111.1
2015-Feb-27 12:34N 31°13' E 122°07'1313.4
2015-Feb-27 11:33N 31°16' E 121°52'1111.5
2015-Feb-27 10:34N 31°21' E 121°40'5 4.6
2015-Feb-27 09:33N 31°23' E 121°35'0 0.0
2015-Feb-27 08:33N 31°23' E 121°35'0 0.0
2015-Feb-27 07:33N 31°23' E 121°35'0 0.0
2015-Feb-27 06:33N 31°23' E 121°35'0 0.0
2015-Feb-27 05:33N 31°23' E 121°35'0 0.0
2015-Feb-27 04:33N 31°23' E 121°35'0 0.0
2015-Feb-27 03:33N 31°23' E 121°35'0 0.0
2015-Feb-27 02:33N 31°23' E 121°35'0 0.0
2015-Feb-27 01:33N 31°23' E 121°35'0 0.0
2015-Feb-27 00:33N 31°23' E 121°35'0 0.0
2015-Feb-26 23:33N 31°23' E 121°35'0 0.0
2015-Feb-26 22:33N 31°23' E 121°35'1 0.7
2015-Feb-26 21:34N 31°23' E 121°34'10 9.7
2015-Feb-26 20:33N 31°19' E 121°44'1111.2
2015-Feb-26 19:33N 31°15' E 121°57'1110.9
2015-Feb-26 18:33N 31°12' E 122°09'1110.8
2015-Feb-26 17:33N 31°06' E 122°20'1010.1
2015-Feb-26 16:33N 31°07' E 122°31'4212.4
2015-Feb-26 13:11N 30°48' E 123°14'1213.1
2015-Feb-26 12:17N 30°36' E 123°18'2914.7
2015-Feb-26 10:19N 30°07' E 123°18'47114.4
2015-Feb-25 01:33N 22°50' E 120°01'1414.2
2015-Feb-25 00:33N 22°38' E 120°08'1110.8
2015-Feb-24 23:33N 22°33' E 120°19'1 0.5
2015-Feb-24 22:32N 22°33' E 120°19'0 0.0
2015-Feb-24 21:32N 22°33' E 120°19'0 0.0
2015-Feb-24 20:26N 22°33' E 120°19'0 0.0
2015-Feb-24 19:32N 22°33' E 120°19'0 0.0
2015-Feb-24 18:32N 22°33' E 120°19'0 0.0
2015-Feb-24 17:32N 22°33' E 120°19'0 0.0
2015-Feb-24 16:26N 22°33' E 120°19'0 0.0
2015-Feb-24 15:32N 22°33' E 120°19'0 0.0
2015-Feb-24 14:26N 22°33' E 120°19'0 0.0
2015-Feb-24 13:32N 22°33' E 120°19'0 0.0
2015-Feb-24 12:32N 22°33' E 120°19'0 0.0
2015-Feb-24 11:32N 22°33' E 120°19'0 0.0
2015-Feb-24 10:32N 22°33' E 120°19'0 0.0
2015-Feb-24 09:33N 22°33' E 120°19'0 0.0
2015-Feb-24 08:33N 22°33' E 120°19'0 0.0
2015-Feb-24 07:33N 22°33' E 120°19'0 0.0
2015-Feb-24 06:33N 22°33' E 120°19'0 0.0
2015-Feb-24 05:33N 22°33' E 120°19'0 0.0
2015-Feb-24 04:33N 22°33' E 120°19'0 0.0
2015-Feb-24 03:33N 22°33' E 120°19'0 0.0
2015-Feb-24 02:33N 22°33' E 120°19'0 0.0
2015-Feb-24 01:33N 22°33' E 120°19'5 4.8
2015-Feb-24 00:34N 22°32' E 120°14'6 5.8
2015-Feb-23 23:33N 22°30' E 120°08'10 9.6
2015-Feb-23 22:33N 22°30' E 119°58'1414.4
2015-Feb-23 21:33N 22°29' E 119°42'1414.5
2015-Feb-23 20:33N 22°27' E 119°27'  

Dump ship's entire track history